Time;durP1;ratioP1;P1;durP2;ratioP2;P2;SDS_P1;SDS_P2;PMS_P1;PMS_P2;Temp;Humidity;BMP_temperature;BMP_pressure;BME280_temperature;BME280_humidity;BME280_pressure;Samples;Min_cycle;Max_cycle;Signal;HPM_P1;HPM_P2
2021/08/08 00:00:56;;;;;;;11.40;5.40;;;;;;;17.24;72.64;100431.36;125404;1099;104158;-80
2021/08/08 00:03:31;;;;;;;12.33;5.50;;;;;;;17.22;72.73;100425.16;126313;1099;105374;-78
2021/08/08 00:06:02;;;;;;;11.17;5.43;;;;;;;17.22;72.78;100426.05;126313;1099;104615;-79
2021/08/08 00:08:34;;;;;;;14.03;5.53;;;;;;;17.25;72.77;100430.49;126296;1099;104146;-78
2021/08/08 00:11:07;;;;;;;12.05;5.55;;;;;;;17.28;72.59;100430.52;126348;1097;104166;-78
2021/08/08 00:13:38;;;;;;;10.10;5.30;;;;;;;17.28;73.13;100427.86;126316;1099;104149;-78
2021/08/08 00:16:09;;;;;;;14.07;5.83;;;;;;;17.27;72.94;100438.45;126393;1099;104252;-79
2021/08/08 00:18:40;;;;;;;11.70;5.87;;;;;;;17.26;73.31;100426.94;125402;1099;104192;-79
2021/08/08 00:21:11;;;;;;;13.80;6.23;;;;;;;17.22;73.66;100423.39;126339;1099;104214;-77
2021/08/08 00:23:44;;;;;;;12.77;6.03;;;;;;;17.20;72.87;100433.11;126306;1099;104280;-78
2021/08/08 00:26:16;;;;;;;12.57;5.80;;;;;;;17.15;73.45;100440.12;125324;1099;104140;-78
2021/08/08 00:28:49;;;;;;;15.83;6.87;;;;;;;17.11;73.06;100437.43;126418;1099;101819;-79
2021/08/08 00:31:24;;;;;;;12.63;5.73;;;;;;;17.07;73.88;100434.75;126342;1099;104278;-78
2021/08/08 00:33:56;;;;;;;11.93;5.80;;;;;;;17.04;73.75;100433.85;126286;1099;104323;-78
2021/08/08 00:36:27;;;;;;;13.47;6.07;;;;;;;17.00;73.86;100445.30;126276;1099;104582;-78
2021/08/08 00:39:00;;;;;;;18.17;5.87;;;;;;;16.95;74.72;100449.67;125392;1099;104255;-79
2021/08/08 00:41:31;;;;;;;12.03;6.03;;;;;;;16.88;74.30;100452.27;126357;1099;104137;-78
2021/08/08 00:44:02;;;;;;;13.50;5.23;;;;;;;16.85;74.48;100446.03;125393;1099;104237;-79
2021/08/08 00:46:34;;;;;;;11.17;6.23;;;;;;;16.82;74.68;100446.00;125345;1099;104139;-78
2021/08/08 00:49:06;;;;;;;11.03;5.30;;;;;;;16.80;74.75;100443.34;125412;1099;104143;-78
2021/08/08 00:51:40;;;;;;;14.83;6.10;;;;;;;16.79;74.87;100446.84;125355;1099;104259;-81
2021/08/08 00:54:12;;;;;;;14.33;5.47;;;;;;;16.78;74.97;100457.43;125369;1099;104146;-78
2021/08/08 00:56:43;;;;;;;13.50;5.47;;;;;;;16.77;74.76;100464.50;126278;1099;104144;-78
2021/08/08 00:59:16;;;;;;;13.90;5.60;;;;;;;16.76;75.11;100467.14;126279;1099;104200;-78
2021/08/08 01:01:50;;;;;;;15.00;5.35;;;;;;;16.75;75.00;100468.91;126330;1099;104143;-79
2021/08/08 01:04:27;;;;;;;11.83;5.53;;;;;;;16.76;75.00;100470.66;126288;1099;104152;-78
2021/08/08 01:07:09;;;;;;;9.67;5.00;;;;;;;16.74;75.28;100471.55;125371;1099;105502;-78
2021/08/08 01:09:46;;;;;;;13.80;5.50;;;;;;;16.70;75.29;100474.16;126329;1099;104146;-78
2021/08/08 01:12:17;;;;;;;13.00;5.57;;;;;;;16.66;76.03;100464.39;126312;1099;104342;-78
2021/08/08 01:14:54;;;;;;;11.33;5.23;;;;;;;16.64;75.84;100462.59;126321;1099;104197;-78
2021/08/08 01:17:27;;;;;;;11.33;5.37;;;;;;;16.62;75.59;100474.95;126292;1099;104201;-78
2021/08/08 01:20:04;;;;;;;8.93;4.80;;;;;;;16.60;76.07;100472.28;126353;1099;104143;-79
2021/08/08 01:22:48;;;;;;;10.17;4.90;;;;;;;16.59;76.41;100475.78;126338;1098;104162;-79
2021/08/08 01:25:21;;;;;;;12.40;5.10;;;;;;;16.58;76.06;100487.28;126294;1099;104156;-78
2021/08/08 01:27:54;;;;;;;11.27;5.53;;;;;;;16.59;76.38;100485.51;126331;1099;104201;-79
2021/08/08 01:30:28;;;;;;;10.77;4.83;;;;;;;16.58;75.70;100486.36;126278;1099;104177;-78
2021/08/08 01:33:05;;;;;;;10.60;5.00;;;;;;;16.57;76.53;100477.55;125376;1099;104169;-78
2021/08/08 01:35:36;;;;;;;9.20;4.80;;;;;;;16.54;76.19;100480.16;126283;1098;104262;-78
2021/08/08 01:38:11;;;;;;;11.10;4.70;;;;;;;16.53;76.45;100486.31;126312;1099;108166;-80
2021/08/08 01:40:49;;;;;;;10.87;5.30;;;;;;;16.50;76.61;100486.28;126363;1099;104155;-78
2021/08/08 01:43:27;;;;;;;9.20;4.37;;;;;;;16.48;75.80;100488.03;126267;1099;104149;-77
2021/08/08 01:46:03;;;;;;;9.77;5.10;;;;;;;16.47;76.84;100492.45;126306;1099;104149;-78
2021/08/08 01:48:39;;;;;;;13.73;5.17;;;;;;;16.47;75.85;100491.55;126296;1099;104226;-77
2021/08/08 01:51:12;;;;;;;10.77;5.17;;;;;;;16.45;76.86;100491.52;125375;1102;104206;-78
2021/08/08 01:53:46;;;;;;;11.48;5.15;;;;;;;16.43;76.95;100490.63;126351;1099;104576;-79
2021/08/08 01:56:18;;;;;;;8.80;5.00;;;;;;;16.40;76.58;100489.72;125326;1099;104146;-78
2021/08/08 01:58:54;;;;;;;8.20;4.93;;;;;;;16.38;76.54;100500.29;126346;1099;104176;-79
2021/08/08 02:01:30;;;;;;;10.30;5.25;;;;;;;16.35;76.82;100495.83;126328;1099;104836;-78
2021/08/08 02:04:24;;;;;;;11.70;5.23;;;;;;;16.32;76.21;100506.39;126329;1099;104303;-78
2021/08/08 02:07:04;;;;;;;12.73;5.23;;;;;;;16.33;76.82;100509.91;126257;1097;104217;-78
2021/08/08 02:09:34;;;;;;;13.67;5.87;;;;;;;16.33;76.97;100509.91;125369;1099;104152;-78
2021/08/08 02:12:07;;;;;;;11.53;4.93;;;;;;;16.34;76.94;100519.64;126330;1098;104281;-78
2021/08/08 02:14:39;;;;;;;9.60;5.00;;;;;;;16.33;76.85;100509.91;126319;1099;104153;-78
2021/08/08 02:17:10;;;;;;;12.23;5.77;;;;;;;16.34;77.13;100511.70;126275;1099;104149;-77
2021/08/08 02:19:42;;;;;;;9.67;4.80;;;;;;;16.33;77.20;100504.62;126357;1099;104143;-79
2021/08/08 02:22:15;;;;;;;9.33;5.00;;;;;;;16.29;77.37;100497.53;126329;1099;104191;-80
2021/08/08 02:24:51;;;;;;;11.60;4.90;;;;;;;16.31;76.74;100511.66;126376;1099;104804;-78
2021/08/08 02:27:25;;;;;;;12.73;5.30;;;;;;;16.33;77.89;100516.12;126302;1099;104842;-78
2021/08/08 02:30:07;;;;;;;9.43;4.83;;;;;;;16.35;77.12;100526.73;126303;1099;104634;-79
2021/08/08 02:32:40;;;;;;;10.00;4.90;;;;;;;16.31;77.44;100528.46;126352;1099;104205;-77
2021/08/08 02:35:12;;;;;;;12.17;5.17;;;;;;;16.26;78.05;100518.67;126330;1099;104576;-78
2021/08/08 02:37:45;;;;;;;9.00;5.20;;;;;;;16.20;78.05;100514.17;126324;1098;104176;-77
2021/08/08 02:40:17;;;;;;;9.10;4.97;;;;;;;16.15;77.79;100529.99;126353;1099;104224;-79
2021/08/08 02:42:49;;;;;;;9.03;4.70;;;;;;;16.12;78.31;100523.78;126316;1099;104226;-78
2021/08/08 02:45:20;;;;;;;15.17;5.30;;;;;;;16.11;78.39;100529.94;126319;1099;104146;-78
2021/08/08 02:47:52;;;;;;;9.70;5.07;;;;;;;16.09;78.08;100529.91;126275;1099;104223;-78
2021/08/08 02:50:24;;;;;;;10.53;4.87;;;;;;;16.09;78.06;100531.68;125442;1099;104179;-79
2021/08/08 02:52:55;;;;;;;9.93;5.30;;;;;;;16.11;77.64;100536.14;125422;1099;104341;-79
2021/08/08 02:55:29;;;;;;;9.10;5.20;;;;;;;16.13;77.39;100534.39;126291;1099;104142;-79
2021/08/08 02:58:04;;;;;;;11.20;5.10;;;;;;;16.14;78.14;100538.83;125555;1099;104147;-79
2021/08/08 03:00:37;;;;;;;15.40;5.40;;;;;;;16.16;77.90;100541.50;126334;1099;104146;-79
2021/08/08 03:03:10;;;;;;;17.40;5.67;;;;;;;16.17;78.39;100537.95;126346;1099;104143;-79
2021/08/08 03:05:42;;;;;;;10.50;5.60;;;;;;;16.17;77.90;100536.22;126323;1099;104213;-79
2021/08/08 03:08:15;;;;;;;8.87;4.63;;;;;;;16.16;78.26;100534.44;126331;1099;104137;-78
2021/08/08 03:10:47;;;;;;;11.47;4.67;;;;;;;16.14;78.46;100546.77;126347;1099;104175;-78
2021/08/08 03:13:18;;;;;;;10.47;4.70;;;;;;;16.14;78.07;100546.77;126331;1099;104147;-78
2021/08/08 03:15:49;;;;;;;11.90;5.10;;;;;;;16.14;77.96;100536.18;126359;1099;104143;-79
2021/08/08 03:18:21;;;;;;;9.13;4.80;;;;;;;16.15;78.47;100537.94;126291;1099;104248;-79
2021/08/08 03:20:54;;;;;;;8.93;4.53;;;;;;;16.16;78.12;100536.20;126291;1099;104207;-78
2021/08/08 03:23:26;;;;;;;7.67;4.23;;;;;;;16.15;78.06;100540.59;126387;1099;104150;-79
2021/08/08 03:25:57;;;;;;;8.97;4.40;;;;;;;16.13;78.45;100544.10;126315;1099;104149;-78
2021/08/08 03:28:29;;;;;;;9.07;4.83;;;;;;;16.13;78.47;100537.04;126078;1098;104274;-78
2021/08/08 03:31:00;;;;;;;7.60;4.43;;;;;;;16.15;78.22;100537.94;125417;1099;104277;-78
2021/08/08 03:33:31;;;;;;;11.60;4.87;;;;;;;16.16;78.01;100534.44;126298;1099;104150;-79
2021/08/08 03:36:03;;;;;;;9.83;4.97;;;;;;;16.20;78.46;100538.00;126299;1099;104195;-79
2021/08/08 03:38:34;;;;;;;8.17;4.80;;;;;;;16.24;78.47;100531.89;125419;1099;104213;-79
2021/08/08 03:41:08;;;;;;;8.80;4.67;;;;;;;16.28;77.88;100532.80;126323;1099;104745;-78
2021/08/08 03:43:39;;;;;;;8.83;4.60;;;;;;;16.32;78.36;100530.22;125419;1099;104297;-78
2021/08/08 03:46:11;;;;;;;10.37;4.43;;;;;;;16.36;78.35;100528.48;126287;1099;104153;-79
2021/08/08 03:48:42;;;;;;;10.83;4.60;;;;;;;16.41;78.26;100529.45;126244;1099;104162;-78
2021/08/08 03:51:14;;;;;;;14.60;4.93;;;;;;;16.45;78.00;100533.90;126313;1099;104188;-79
2021/08/08 03:53:45;;;;;;;13.90;5.50;;;;;;;16.48;78.73;100525.99;126363;1099;104168;-79
2021/08/08 03:56:17;;;;;;;10.13;4.90;;;;;;;16.51;78.70;100530.45;125334;1099;104278;-78
2021/08/08 03:58:48;;;;;;;13.63;5.17;;;;;;;16.49;78.66;100524.25;126254;1099;104600;-79
2021/08/08 04:01:20;;;;;;;12.07;4.63;;;;;;;16.47;78.48;100529.53;126323;1097;104159;-78
2021/08/08 04:03:52;;;;;;;9.63;4.73;;;;;;;16.50;78.48;100528.66;126284;1099;104277;-78
2021/08/08 04:06:25;;;;;;;12.10;4.87;;;;;;;16.51;78.57;100526.03;126352;1099;104204;-78
2021/08/08 04:08:58;;;;;;;10.53;4.83;;;;;;;16.53;78.11;100528.70;126296;1099;104426;-80
2021/08/08 04:11:30;;;;;;;10.57;5.10;;;;;;;16.54;79.00;100530.48;125408;1099;104312;-79
2021/08/08 04:14:01;;;;;;;11.57;4.73;;;;;;;16.58;78.26;100536.70;125351;1099;104192;-78
2021/08/08 04:16:33;;;;;;;8.40;4.10;;;;;;;16.62;78.41;100530.58;125368;1099;104219;-80
2021/08/08 04:19:05;;;;;;;9.63;5.00;;;;;;;16.63;78.54;100521.77;125366;1099;104207;-79
2021/08/08 04:21:38;;;;;;;10.82;4.47;;;;;;;16.66;78.42;100521.80;126322;1099;104683;-79
2021/08/08 04:24:09;;;;;;;9.43;4.73;;;;;;;16.68;78.79;100522.70;126306;1099;104355;-78
2021/08/08 04:26:40;;;;;;;13.90;4.83;;;;;;;16.71;78.34;100517.44;126307;1099;104258;-80
2021/08/08 04:29:11;;;;;;;10.73;4.60;;;;;;;16.73;78.56;100520.98;126262;1099;104198;-79
2021/08/08 04:31:45;;;;;;;13.03;4.87;;;;;;;16.74;78.51;100524.53;126304;1099;104192;-78
2021/08/08 04:34:16;;;;;;;10.67;4.37;;;;;;;16.76;78.82;100526.31;126327;1099;104176;-79
2021/08/08 04:36:47;;;;;;;9.23;4.37;;;;;;;16.79;78.64;100530.77;126295;1099;104152;-78
2021/08/08 04:39:19;;;;;;;9.30;4.37;;;;;;;16.84;79.00;100526.39;126285;1099;104160;-79
2021/08/08 04:41:52;;;;;;;11.23;4.37;;;;;;;16.89;78.38;100533.56;125412;1102;108571;-78
2021/08/08 04:44:23;;;;;;;10.20;4.77;;;;;;;16.94;78.85;100530.96;126384;1099;104178;-78
2021/08/08 04:46:57;;;;;;;9.07;4.80;;;;;;;17.02;78.91;100538.99;126335;1099;104188;-79
2021/08/08 04:49:30;;;;;;;10.83;4.60;;;;;;;17.08;78.94;100539.05;126302;1099;104332;-78
2021/08/08 04:52:02;;;;;;;10.50;5.17;;;;;;;17.14;78.47;100541.77;126307;1099;104245;-78
2021/08/08 04:54:34;;;;;;;9.50;4.97;;;;;;;17.18;78.67;100538.25;126333;1099;104146;-79
2021/08/08 04:57:06;;;;;;;10.03;4.33;;;;;;;17.22;78.81;100537.41;126347;1099;104605;-79
2021/08/08 04:59:42;;;;;;;8.70;4.37;;;;;;;17.26;78.51;100527.70;126318;1099;104275;-79
2021/08/08 05:02:19;;;;;;;10.67;4.90;;;;;;;17.31;78.91;100526.01;126328;1099;108284;-78
2021/08/08 05:04:51;;;;;;;11.27;5.00;;;;;;;17.34;78.79;100525.13;126253;1099;104165;-79
2021/08/08 05:07:22;;;;;;;7.30;4.50;;;;;;;17.40;78.97;100527.83;126351;1099;104158;-78
2021/08/08 05:09:53;;;;;;;7.87;4.60;;;;;;;17.46;78.75;100532.31;126359;1099;104172;-79
2021/08/08 05:12:25;;;;;;;11.70;4.73;;;;;;;17.50;78.51;100535.00;126372;1099;104187;-79
2021/08/08 05:14:58;;;;;;;9.87;4.80;;;;;;;17.55;78.81;100546.52;126324;1099;104191;-79
2021/08/08 05:17:29;;;;;;;12.43;5.17;;;;;;;17.58;78.52;100533.28;126350;1098;104258;-80
2021/08/08 05:20:06;;;;;;;8.87;4.23;;;;;;;17.67;78.56;100539.52;126284;1099;104309;-78
2021/08/08 05:22:37;;;;;;;9.73;4.75;;;;;;;17.74;78.53;100541.36;125320;1099;104370;-79
2021/08/08 05:25:11;;;;;;;9.80;4.80;;;;;;;17.77;78.65;100536.95;126339;1099;104249;-79
2021/08/08 05:27:45;;;;;;;8.23;4.43;;;;;;;17.82;78.47;100539.63;125363;1099;104303;-79
2021/08/08 05:30:16;;;;;;;;;;;;;;;17.87;78.59;100553.84;126404;1099;104220;-77
2021/08/08 05:32:47;;;;;;;11.30;5.00;;;;;;;17.92;78.67;100557.44;126302;1099;104162;-78
2021/08/08 05:35:19;;;;;;;8.00;4.63;;;;;;;18.01;78.69;100563.68;126324;1099;104162;-78
2021/08/08 05:37:51;;;;;;;9.93;4.77;;;;;;;18.06;78.56;100564.59;126348;1099;104243;-79
2021/08/08 05:40:22;;;;;;;8.93;4.87;;;;;;;18.08;78.36;100558.42;126341;1098;104178;-78
2021/08/08 05:42:57;;;;;;;7.77;4.17;;;;;;;18.13;78.61;100561.10;126332;1099;104146;-78
2021/08/08 05:45:29;;;;;;;11.13;4.77;;;;;;;18.20;78.54;100564.67;125390;1099;104230;-79
2021/08/08 05:48:00;;;;;;;8.73;4.47;;;;;;;18.26;78.58;100562.05;126376;1099;104227;-78
2021/08/08 05:50:34;;;;;;;7.83;4.25;;;;;;;18.35;78.31;100577.16;126325;1099;104153;-79
2021/08/08 05:53:05;;;;;;;12.47;4.83;;;;;;;18.42;78.28;100576.31;125269;1099;104277;-79
2021/08/08 05:55:41;;;;;;;11.37;5.07;;;;;;;18.47;77.92;100571.91;126348;1099;104160;-78
2021/08/08 05:58:13;;;;;;;10.53;4.30;;;;;;;18.55;78.40;100569.28;126298;1099;104304;-79
2021/08/08 06:00:45;;;;;;;9.13;4.23;;;;;;;18.62;77.76;100571.97;125390;1099;104348;-78
2021/08/08 06:03:16;;;;;;;7.13;4.17;;;;;;;18.69;78.38;100570.21;126288;1099;104280;-78
2021/08/08 06:05:48;;;;;;;10.47;5.20;;;;;;;18.80;78.10;100573.78;126319;1099;104322;-78
2021/08/08 06:08:19;;;;;;;13.03;5.03;;;;;;;18.87;77.54;100577.41;125365;1099;104159;-77
2021/08/08 06:10:51;;;;;;;11.00;4.93;;;;;;;18.95;77.35;100575.64;126319;1099;104258;-78
2021/08/08 06:13:23;;;;;;;12.43;4.53;;;;;;;19.04;77.80;100570.35;126264;1098;104743;-79
2021/08/08 06:15:56;;;;;;;12.25;4.83;;;;;;;19.13;77.31;100572.13;125394;1099;104604;-78
2021/08/08 06:18:27;;;;;;;12.17;4.73;;;;;;;19.24;77.66;100576.58;125337;1099;104239;-78
2021/08/08 06:20:58;;;;;;;8.93;4.10;;;;;;;19.33;77.06;100574.81;126328;1099;104197;-79
2021/08/08 06:23:38;;;;;;;10.37;4.23;;;;;;;19.42;76.91;100575.72;126281;1099;104153;-78
2021/08/08 06:26:10;;;;;;;12.93;4.40;;;;;;;19.49;76.56;100577.48;126343;1099;104141;-78
2021/08/08 06:28:45;;;;;;;13.35;5.08;;;;;;;19.58;76.47;100573.04;126344;1099;104147;-78
2021/08/08 06:31:17;;;;;;;10.83;4.73;;;;;;;19.68;75.30;100568.63;125455;1099;104630;-78
2021/08/08 06:33:48;;;;;;;8.47;4.10;;;;;;;19.77;75.44;100559.75;126306;1099;104443;-80
2021/08/08 06:36:20;;;;;;;9.07;3.77;;;;;;;19.88;74.65;100565.06;125378;1099;104172;-79
2021/08/08 06:38:53;;;;;;;12.98;4.17;;;;;;;19.99;74.44;100562.39;126324;1099;104312;-80
2021/08/08 06:41:27;;;;;;;9.38;4.17;;;;;;;20.07;73.96;100571.23;126363;1099;104245;-80
2021/08/08 06:43:59;;;;;;;10.00;4.30;;;;;;;20.18;73.97;100572.13;126259;1099;104162;-78
2021/08/08 06:46:31;;;;;;;11.93;4.53;;;;;;;20.28;74.21;100563.19;125463;1099;104312;-80
2021/08/08 06:49:03;;;;;;;12.47;5.03;;;;;;;20.38;73.22;100566.73;125446;1099;104185;-79
2021/08/08 06:51:37;;;;;;;11.20;4.72;;;;;;;20.49;73.66;100574.69;125399;1099;104258;-79
2021/08/08 06:54:12;;;;;;;11.65;4.65;;;;;;;20.64;73.08;100579.05;126299;1099;105546;-79
2021/08/08 06:56:42;;;;;;;;;;;;;;;20.78;71.01;100579.90;126358;1099;104222;-79
2021/08/08 06:59:14;;;;;;;16.30;4.63;;;;;;;20.89;72.33;100578.97;126335;1099;104139;-79
2021/08/08 07:01:46;;;;;;;9.83;4.23;;;;;;;20.99;72.15;100578.03;126350;1099;104191;-79
2021/08/08 07:04:17;;;;;;;12.70;4.80;;;;;;;21.08;72.18;100579.73;126303;1098;104272;-79
2021/08/08 07:06:48;;;;;;;12.90;4.83;;;;;;;21.18;72.20;100577.00;126338;1099;104153;-79
2021/08/08 07:09:19;;;;;;;12.93;4.50;;;;;;;21.30;71.45;100581.38;126330;1099;104146;-80
2021/08/08 07:11:51;;;;;;;7.70;3.80;;;;;;;21.46;71.96;100576.81;126363;1099;104197;-79
2021/08/08 07:14:33;;;;;;;7.60;4.43;;;;;;;21.70;70.96;100580.20;126297;1098;104178;-78
2021/08/08 07:17:06;;;;;;;9.20;3.80;;;;;;;21.88;70.07;100577.36;126364;1099;104169;-79
2021/08/08 07:19:37;;;;;;;8.70;4.10;;;;;;;22.01;70.62;100577.23;126349;1099;104241;-78
2021/08/08 07:22:10;;;;;;;10.23;4.30;;;;;;;22.12;69.87;100577.13;126289;1099;104224;-79
2021/08/08 07:24:44;;;;;;;11.47;4.33;;;;;;;22.25;70.79;100571.64;126293;1099;104997;-79
2021/08/08 07:27:16;;;;;;;9.28;4.03;;;;;;;22.40;70.51;100572.39;126333;1099;104657;-78
2021/08/08 07:29:47;;;;;;;8.97;4.10;;;;;;;22.51;70.20;100570.45;126368;1099;104216;-79
2021/08/08 07:32:19;;;;;;;10.00;3.90;;;;;;;22.70;69.31;100575.58;125407;1099;104153;-80
2021/08/08 07:34:51;;;;;;;13.23;3.90;;;;;;;22.92;68.52;100571.72;126234;1099;104242;-78
2021/08/08 07:37:22;;;;;;;8.80;4.00;;;;;;;23.09;68.14;100567.92;125397;1099;104172;-79
2021/08/08 07:39:55;;;;;;;8.37;3.97;;;;;;;23.21;67.90;100580.25;126349;1099;104245;-78
2021/08/08 07:42:27;;;;;;;9.37;3.83;;;;;;;23.35;68.35;100574.69;126375;1099;104249;-79
2021/08/08 07:44:58;;;;;;;9.40;4.17;;;;;;;23.53;66.86;100573.48;125409;1099;104235;-79
2021/08/08 07:47:29;;;;;;;10.70;3.93;;;;;;;23.78;66.36;100563.22;126328;1099;104155;-79
2021/08/08 07:50:00;;;;;;;8.83;4.20;;;;;;;24.10;65.27;100565.34;126340;1099;104325;-79
2021/08/08 07:52:35;;;;;;;8.23;4.28;;;;;;;24.27;65.00;100562.34;125403;1099;104181;-78
2021/08/08 07:55:08;;;;;;;8.03;3.58;;;;;;;24.30;64.45;100566.77;126228;1099;104194;-77
2021/08/08 07:57:39;;;;;;;10.97;4.00;;;;;;;24.38;64.23;100568.36;126369;1099;104140;-77
2021/08/08 08:00:12;;;;;;;7.50;3.70;;;;;;;24.48;63.97;100565.49;125388;1099;104204;-78
2021/08/08 08:02:54;;;;;;;8.40;3.73;;;;;;;24.57;63.54;100573.38;126342;1099;104252;-79
2021/08/08 08:05:27;;;;;;;7.63;3.57;;;;;;;24.68;61.37;100568.69;125322;1099;104184;-78
2021/08/08 08:07:58;;;;;;;7.00;3.60;;;;;;;24.89;60.35;100572.69;126334;1099;104188;-79
2021/08/08 08:10:31;;;;;;;6.47;3.87;;;;;;;25.03;60.11;100569.69;126330;1099;104147;-79
2021/08/08 08:13:03;;;;;;;8.63;3.65;;;;;;;25.13;60.67;100573.03;125237;1102;104185;-78
2021/08/08 08:15:34;;;;;;;5.53;3.50;;;;;;;25.18;59.32;100572.93;125321;1102;104191;-79
2021/08/08 08:18:06;;;;;;;9.17;3.50;;;;;;;25.22;58.88;100569.27;125318;1102;104185;-79
2021/08/08 08:20:37;;;;;;;7.23;3.23;;;;;;;25.29;58.78;100571.80;125341;1100;104335;-79
2021/08/08 08:23:10;;;;;;;7.12;3.33;;;;;;;25.43;57.41;100568.78;125301;1102;104284;-78
2021/08/08 08:25:43;;;;;;;5.83;3.13;;;;;;;25.57;55.85;100570.22;125205;1099;104210;-79
2021/08/08 08:28:14;;;;;;;6.17;3.37;;;;;;;25.51;53.48;100570.38;125272;1100;104287;-78
2021/08/08 08:30:46;;;;;;;6.73;3.40;;;;;;;25.61;54.72;100571.92;125313;1099;104315;-79
2021/08/08 08:33:17;;;;;;;3.40;3.00;;;;;;;25.69;55.45;100567.22;125300;1099;104310;-79
2021/08/08 08:35:48;;;;;;;5.17;3.30;;;;;;;25.81;55.12;100564.22;125272;1102;104211;-78
2021/08/08 08:38:21;;;;;;;9.20;3.37;;;;;;;25.99;54.26;100565.58;125287;1102;104430;-78
2021/08/08 08:40:53;;;;;;;;;;;;;;;26.04;50.76;100575.30;125335;1102;104715;-79
2021/08/08 08:43:26;;;;;;;7.67;3.47;;;;;;;26.07;53.68;100570.74;125269;1102;104157;-78
2021/08/08 08:46:02;;;;;;;6.00;3.20;;;;;;;26.17;51.80;100563.30;126199;1098;105510;-79
2021/08/08 08:48:37;;;;;;;6.03;3.60;;;;;;;26.29;50.73;100564.77;126340;1099;101925;-79
2021/08/08 08:51:10;;;;;;;4.93;3.30;;;;;;;26.37;50.83;100560.05;126315;1099;104245;-79
2021/08/08 08:53:45;;;;;;;3.80;2.90;;;;;;;26.47;50.78;100561.52;126320;1099;104153;-79
2021/08/08 08:56:17;;;;;;;5.37;3.47;;;;;;;26.57;49.96;100564.84;126274;1099;104188;-79
2021/08/08 08:58:51;;;;;;;6.10;3.67;;;;;;;26.58;50.32;100555.82;126373;1099;104184;-78
2021/08/08 09:01:22;;;;;;;4.43;3.37;;;;;;;26.62;50.45;100559.33;126306;1099;104261;-77
2021/08/08 09:03:54;;;;;;;6.83;3.47;;;;;;;26.59;50.11;100560.28;126314;1099;104150;-79
2021/08/08 09:06:25;;;;;;;10.07;3.30;;;;;;;26.66;50.08;100567.30;125918;1099;104753;-80
2021/08/08 09:08:56;;;;;;;6.47;3.43;;;;;;;26.66;49.60;100567.30;126343;1099;104156;-79
2021/08/08 09:11:41;;;;;;;6.33;3.40;;;;;;;26.67;48.72;100571.73;126357;1099;104152;-78
2021/08/08 09:14:16;;;;;;;6.53;3.50;;;;;;;26.71;49.48;100570.72;126264;1099;104149;-78
2021/08/08 09:16:52;;;;;;;4.83;3.43;;;;;;;26.68;49.01;100565.42;126257;1099;104309;-78
2021/08/08 09:19:27;;;;;;;5.37;3.60;;;;;;;26.76;48.24;100573.27;125241;1102;104368;-79
2021/08/08 09:22:04;;;;;;;7.57;3.90;;;;;;;26.87;48.28;100557.66;125212;1102;104181;-79
2021/08/08 09:24:38;;;;;;;8.83;3.70;;;;;;;26.98;48.54;100556.46;125276;1102;104764;-79
2021/08/08 09:27:14;;;;;;;5.80;3.27;;;;;;;27.02;47.56;100559.01;125292;1102;104389;-78
2021/08/08 09:29:50;;;;;;;6.97;4.00;;;;;;;27.04;47.78;100553.58;125256;1102;104475;-78
2021/08/08 09:32:31;;;;;;;8.73;3.90;;;;;;;27.05;48.44;100555.31;125304;1102;104198;-79
2021/08/08 09:35:19;;;;;;;6.30;3.53;;;;;;;27.04;48.46;100554.45;125278;1102;104200;-78
2021/08/08 09:38:01;;;;;;;7.23;4.13;;;;;;;27.05;48.66;100553.53;125284;1102;104284;-78
2021/08/08 09:40:33;;;;;;;7.27;3.60;;;;;;;26.95;47.80;100546.66;125288;1102;104299;-79
2021/08/08 09:43:05;;;;;;;7.30;3.63;;;;;;;26.95;46.83;100556.55;125359;1102;104147;-76
2021/08/08 09:45:42;;;;;;;5.47;3.50;;;;;;;26.90;47.54;100540.55;125342;1100;104185;-77
2021/08/08 09:48:14;;;;;;;6.63;3.43;;;;;;;26.92;47.82;100549.45;125370;1102;110656;-78
2021/08/08 09:50:47;;;;;;;6.90;3.60;;;;;;;26.93;47.40;100553.91;125652;1102;104315;-79
2021/08/08 09:53:21;;;;;;;6.43;3.57;;;;;;;26.96;47.53;100550.22;126307;1099;104142;-79
2021/08/08 09:55:52;;;;;;;8.17;3.90;;;;;;;26.99;46.60;100555.51;126295;1099;104802;-77
2021/08/08 09:58:29;;;;;;;5.33;3.50;;;;;;;26.99;46.68;100544.73;126333;1099;104181;-78
2021/08/08 10:01:02;;;;;;;4.30;3.30;;;;;;;26.96;45.76;100558.30;126308;1098;104150;-80
2021/08/08 10:03:34;;;;;;;5.33;3.40;;;;;;;26.96;45.18;100551.12;126306;1099;104169;-79
2021/08/08 10:06:11;;;;;;;5.53;3.27;;;;;;;27.03;45.35;100552.67;126290;1099;104236;-78
2021/08/08 10:08:45;;;;;;;4.47;3.27;;;;;;;27.10;45.37;100542.61;126219;1099;108267;-79
2021/08/08 10:11:19;;;;;;;4.90;3.27;;;;;;;27.11;45.41;100544.34;125376;1099;104207;-79
2021/08/08 10:13:57;;;;;;;3.70;3.10;;;;;;;27.06;44.88;100546.31;126311;1099;104216;-77
2021/08/08 10:16:31;;;;;;;4.53;3.20;;;;;;;27.05;45.09;100544.55;126338;1099;104172;-78
2021/08/08 10:19:04;;;;;;;4.33;3.20;;;;;;;27.01;43.93;100542.90;126402;1099;119084;-77
2021/08/08 10:21:38;;;;;;;5.50;3.50;;;;;;;27.05;44.67;100533.77;126272;1099;104150;-78
2021/08/08 10:24:12;;;;;;;4.30;2.90;;;;;;;27.05;42.78;100536.47;126351;1099;104150;-76
2021/08/08 10:26:44;;;;;;;5.53;3.10;;;;;;;27.11;43.87;100538.96;126277;1099;104239;-78
2021/08/08 10:29:16;;;;;;;4.03;2.77;;;;;;;27.10;44.03;100526.45;126248;1099;104242;-77
2021/08/08 10:31:51;;;;;;;4.70;3.10;;;;;;;27.06;42.27;100538.23;126306;1099;104259;-78
2021/08/08 10:34:34;;;;;;;5.43;3.10;;;;;;;27.02;42.31;100537.47;126268;1099;104147;-76
2021/08/08 10:37:16;;;;;;;5.37;3.33;;;;;;;27.02;42.82;100525.80;126333;1099;104229;-76
2021/08/08 10:39:50;;;;;;;7.07;3.10;;;;;;;27.05;42.55;100525.69;126270;1099;109433;-78
2021/08/08 10:42:24;;;;;;;9.07;3.63;;;;;;;27.12;42.63;100524.58;126357;1098;104142;-77
2021/08/08 10:44:59;;;;;;;4.07;3.10;;;;;;;27.19;43.68;100523.45;126342;1099;104150;-78
2021/08/08 10:47:35;;;;;;;8.77;3.27;;;;;;;27.26;42.70;100534.90;125300;1099;104322;-78
2021/08/08 10:50:12;;;;;;;7.13;3.53;;;;;;;27.32;43.00;100528.47;126328;1099;104146;-78
2021/08/08 10:52:45;;;;;;;6.60;3.40;;;;;;;27.37;42.81;100537.27;126339;1098;104158;-80
2021/08/08 10:55:27;;;;;;;4.70;3.30;;;;;;;27.41;42.87;100531.73;126344;1099;102028;-78
2021/08/08 10:58:00;;;;;;;8.73;3.17;;;;;;;27.48;42.76;100526.13;126272;1099;104143;-78
2021/08/08 11:00:35;;;;;;;5.08;3.30;;;;;;;27.51;43.11;100526.03;126323;1098;104175;-78
2021/08/08 11:03:17;;;;;;;4.20;3.00;;;;;;;27.52;42.10;100528.67;126327;1099;104155;-78
2021/08/08 11:05:48;;;;;;;4.93;3.20;;;;;;;27.50;41.58;100530.52;126310;1099;104146;-78
2021/08/08 11:08:23;;;;;;;5.57;3.20;;;;;;;27.54;42.37;100525.92;126234;1099;105579;-78
2021/08/08 11:10:55;;;;;;;3.67;2.53;;;;;;;27.51;41.21;100520.64;126318;1099;104232;-79
2021/08/08 11:13:27;;;;;;;3.17;2.83;;;;;;;27.56;41.18;100513.27;126337;1099;104322;-77
2021/08/08 11:15:58;;;;;;;5.20;2.67;;;;;;;27.58;41.18;100523.07;126307;1099;104208;-77
2021/08/08 11:18:33;;;;;;;3.80;2.90;;;;;;;27.61;41.53;100509.48;126233;1099;104144;-78
2021/08/08 11:21:13;;;;;;;5.07;2.60;;;;;;;27.65;40.70;100522.86;126297;1099;104143;-76
2021/08/08 11:23:45;;;;;;;4.00;3.03;;;;;;;27.68;40.68;100522.75;126359;1098;104143;-78
2021/08/08 11:26:19;;;;;;;4.50;3.30;;;;;;;27.74;40.56;100522.54;126290;1099;104140;-77
2021/08/08 11:28:55;;;;;;;5.33;3.23;;;;;;;27.80;41.29;100522.32;126270;1099;104198;-78
2021/08/08 11:31:29;;;;;;;5.47;2.77;;;;;;;27.80;40.75;100516.94;125361;1099;104152;-77
2021/08/08 11:34:03;;;;;;;4.77;3.17;;;;;;;27.78;40.75;100514.30;126310;1099;104153;-78